createdAt,value
2023-01-31T00:01:10.608Z,7.27
2023-01-31T00:03:40.208Z,7.20
2023-01-31T00:06:15.916Z,6.00
2023-01-31T00:08:44.396Z,7.70
2023-01-31T00:11:12.409Z,6.70
2023-01-31T00:13:40.347Z,6.90
2023-01-31T00:16:08.568Z,8.07
2023-01-31T00:18:37.880Z,6.77
2023-01-31T00:21:09.264Z,6.57
2023-01-31T00:23:37.771Z,6.77
2023-01-31T00:26:12.608Z,5.80
2023-01-31T00:28:40.657Z,5.10
2023-01-31T00:31:08.725Z,6.80
2023-01-31T00:33:37.641Z,4.60
2023-01-31T00:36:06.819Z,4.40
2023-01-31T00:38:36.774Z,6.13
2023-01-31T00:41:05.063Z,3.80
2023-01-31T00:43:33.117Z,4.00
2023-01-31T00:46:01.315Z,4.57
2023-01-31T00:48:29.460Z,3.87
2023-01-31T00:50:57.488Z,3.40
2023-01-31T00:53:25.856Z,4.90
2023-01-31T00:55:56.483Z,3.10
2023-01-31T00:58:24.486Z,2.90
2023-01-31T01:00:52.496Z,6.03
2023-01-31T01:03:20.479Z,5.47
2023-01-31T01:05:48.425Z,6.50
2023-01-31T01:08:16.392Z,6.00
2023-01-31T01:10:44.369Z,5.90
2023-01-31T01:13:13.711Z,4.97
2023-01-31T01:15:41.692Z,4.07
2023-01-31T01:18:09.616Z,4.30
2023-01-31T01:20:37.560Z,3.40
2023-01-31T01:23:05.518Z,2.63
2023-01-31T01:25:34.461Z,2.07
2023-01-31T01:28:02.915Z,2.53
2023-01-31T01:30:32.333Z,3.20
2023-01-31T01:33:00.265Z,2.37
2023-01-31T01:35:28.299Z,2.50
2023-01-31T01:37:56.247Z,2.83
2023-01-31T01:40:24.218Z,2.67
2023-01-31T01:42:52.148Z,3.00
2023-01-31T01:45:21.402Z,3.13
2023-01-31T01:47:52.097Z,3.20
2023-01-31T01:50:22.284Z,2.30
2023-01-31T01:52:52.509Z,2.13
2023-01-31T01:55:23.772Z,3.40
2023-01-31T01:57:57.475Z,2.70
2023-01-31T02:00:26.474Z,3.50
2023-01-31T02:02:58.133Z,2.90
2023-01-31T02:05:29.564Z,2.30
2023-01-31T02:07:57.715Z,1.70
2023-01-31T02:10:27.939Z,2.93
2023-01-31T02:12:55.944Z,2.40
2023-01-31T02:15:24.577Z,2.60
2023-01-31T02:17:52.693Z,2.23
2023-01-31T02:20:49.076Z,2.23
2023-01-31T02:23:43.353Z,2.30
2023-01-31T02:26:41.124Z,3.00
2023-01-31T02:29:25.635Z,2.67
2023-01-31T02:32:31.717Z,2.13
2023-01-31T02:35:04.566Z,2.13
2023-01-31T02:37:36.843Z,2.60
2023-01-31T02:40:09.825Z,2.20
2023-01-31T02:42:41.599Z,2.37
2023-01-31T02:45:09.812Z,2.80
2023-01-31T02:47:50.795Z,2.80
2023-01-31T02:50:23.266Z,3.07
2023-01-31T02:52:52.671Z,3.10
2023-01-31T02:55:40.020Z,2.83
2023-01-31T02:58:08.982Z,2.50
2023-01-31T03:00:38.095Z,3.03
2023-01-31T03:03:06.900Z,2.77
2023-01-31T03:05:36.584Z,2.73
2023-01-31T03:08:05.731Z,2.60
2023-01-31T03:10:52.113Z,2.57
2023-01-31T03:13:27.949Z,2.93
2023-01-31T03:16:18.064Z,2.80
2023-01-31T03:18:50.806Z,3.33
2023-01-31T03:21:21.561Z,3.37
2023-01-31T03:23:50.600Z,2.77
2023-01-31T03:26:20.338Z,3.23
2023-01-31T03:28:48.404Z,2.10
2023-01-31T03:31:19.134Z,2.60
2023-01-31T03:33:48.703Z,3.43
2023-01-31T03:36:21.528Z,2.27
2023-01-31T03:38:53.476Z,2.27
2023-01-31T03:41:24.937Z,2.13
2023-01-31T03:43:58.847Z,2.30
2023-01-31T03:46:29.098Z,2.50
2023-01-31T03:48:57.449Z,3.53
2023-01-31T03:51:29.619Z,2.40
2023-01-31T03:53:59.694Z,3.43
2023-01-31T03:56:29.302Z,3.00
2023-01-31T03:58:58.805Z,3.13
2023-01-31T04:01:27.329Z,3.37
2023-01-31T04:03:56.708Z,3.23
2023-01-31T04:06:26.063Z,4.87
2023-01-31T04:08:54.000Z,3.40
2023-01-31T04:11:23.091Z,3.67
2023-01-31T04:13:51.011Z,4.17
2023-01-31T04:16:19.024Z,6.23
2023-01-31T04:18:47.043Z,6.10
2023-01-31T04:21:15.335Z,7.32
2023-01-31T04:23:44.660Z,7.27
2023-01-31T04:26:12.646Z,4.80
2023-01-31T04:28:40.577Z,4.53
2023-01-31T04:31:08.682Z,6.80
2023-01-31T04:33:36.720Z,7.80
2023-01-31T04:36:05.243Z,4.20
2023-01-31T04:38:33.183Z,4.37
2023-01-31T04:41:02.563Z,4.53
2023-01-31T04:43:30.527Z,4.20
2023-01-31T04:45:58.450Z,3.97
2023-01-31T04:48:28.296Z,5.33
2023-01-31T04:50:56.902Z,5.10
2023-01-31T04:53:24.847Z,5.17
2023-01-31T04:55:55.073Z,4.67
2023-01-31T04:58:24.608Z,4.63
2023-01-31T05:00:54.516Z,4.40
2023-01-31T05:03:22.551Z,4.30
2023-01-31T05:05:50.520Z,5.33
2023-01-31T05:08:18.486Z,4.80
2023-01-31T05:10:46.425Z,6.00
2023-01-31T05:13:14.671Z,4.70
2023-01-31T05:15:44.020Z,4.60
2023-01-31T05:18:11.973Z,3.77
2023-01-31T05:20:41.045Z,4.10
2023-01-31T05:23:09.219Z,6.43
2023-01-31T05:25:37.352Z,6.10
2023-01-31T05:28:05.384Z,4.33
2023-01-31T05:30:33.592Z,4.67
2023-01-31T05:33:03.085Z,4.20
2023-01-31T05:35:31.283Z,5.23
2023-01-31T05:37:59.595Z,7.23
2023-01-31T05:40:27.547Z,5.27
2023-01-31T05:42:56.204Z,5.13
2023-01-31T05:45:24.328Z,5.30
2023-01-31T05:47:52.298Z,6.33
2023-01-31T05:50:21.884Z,5.40
2023-01-31T05:52:53.030Z,6.77
2023-01-31T05:55:21.279Z,8.60
2023-01-31T05:57:49.413Z,4.50
2023-01-31T06:00:17.972Z,6.47
2023-01-31T06:02:46.024Z,6.10
2023-01-31T06:05:14.012Z,7.77
2023-01-31T06:07:43.326Z,5.53
2023-01-31T06:10:12.813Z,6.30
2023-01-31T06:12:40.770Z,7.90
2023-01-31T06:15:09.501Z,6.13
2023-01-31T06:17:37.438Z,7.17
2023-01-31T06:20:06.079Z,7.47
2023-01-31T06:22:34.227Z,5.47
2023-01-31T06:25:03.577Z,9.03
2023-01-31T06:27:33.219Z,8.90
2023-01-31T06:30:01.187Z,6.80
2023-01-31T06:32:29.140Z,5.60
2023-01-31T06:34:57.478Z,6.37
2023-01-31T06:37:25.555Z,6.37
2023-01-31T06:39:53.531Z,6.10
2023-01-31T06:42:22.828Z,5.50
2023-01-31T06:44:50.766Z,6.83
2023-01-31T06:47:19.962Z,7.10
2023-01-31T06:49:47.930Z,7.67
2023-01-31T06:52:15.857Z,7.73
2023-01-31T06:54:43.857Z,7.40
2023-01-31T06:57:11.862Z,5.80
2023-01-31T06:59:41.203Z,5.20
2023-01-31T07:02:10.701Z,7.00
2023-01-31T07:04:38.637Z,6.10
2023-01-31T07:07:06.601Z,6.47
2023-01-31T07:09:34.556Z,5.30
2023-01-31T07:12:03.378Z,6.20
2023-01-31T07:14:31.476Z,7.13
2023-01-31T07:17:00.915Z,7.40
2023-01-31T07:19:28.841Z,7.30
2023-01-31T07:21:56.781Z,7.97
2023-01-31T07:24:24.716Z,6.57
2023-01-31T07:26:53.909Z,6.50
2023-01-31T07:29:21.941Z,7.90
2023-01-31T07:31:50.229Z,5.90
2023-01-31T07:34:21.724Z,6.80
2023-01-31T07:36:49.655Z,7.27
2023-01-31T07:39:17.639Z,8.10
2023-01-31T07:41:45.583Z,6.10
2023-01-31T07:44:13.526Z,6.30
2023-01-31T07:46:41.616Z,5.97
2023-01-31T07:49:10.651Z,7.20
2023-01-31T07:51:40.007Z,5.67
2023-01-31T07:54:08.043Z,5.77
2023-01-31T07:56:35.979Z,7.70
2023-01-31T07:59:03.965Z,7.97
2023-01-31T08:01:50.730Z,6.30
2023-01-31T08:04:21.946Z,5.30
2023-01-31T08:06:52.312Z,6.70
2023-01-31T08:09:20.261Z,6.80
2023-01-31T08:11:48.188Z,8.20
2023-01-31T08:14:16.158Z,6.53
2023-01-31T08:16:44.162Z,6.80
2023-01-31T08:19:12.209Z,6.27
2023-01-31T08:21:40.177Z,7.50
2023-01-31T08:24:10.497Z,6.13
2023-01-31T08:26:38.463Z,4.90
2023-01-31T08:29:06.695Z,8.03
2023-01-31T08:31:34.731Z,6.70
2023-01-31T08:34:03.292Z,5.97
2023-01-31T08:36:32.977Z,6.00
2023-01-31T08:39:01.028Z,8.20
2023-01-31T08:41:30.583Z,7.00
2023-01-31T08:44:00.376Z,8.50
2023-01-31T08:46:31.056Z,5.63
2023-01-31T08:48:59.309Z,7.17
2023-01-31T08:51:27.292Z,6.23
2023-01-31T08:53:55.262Z,7.30
2023-01-31T08:56:26.101Z,8.03
2023-01-31T08:58:55.848Z,5.60
2023-01-31T09:01:24.055Z,5.70
2023-01-31T09:03:56.801Z,6.97
2023-01-31T09:06:27.058Z,7.47
2023-01-31T09:08:56.753Z,8.40
2023-01-31T09:11:24.721Z,6.17
2023-01-31T09:13:52.740Z,7.00
2023-01-31T09:16:22.211Z,7.77
2023-01-31T09:18:50.202Z,9.20
2023-01-31T09:21:19.135Z,10.33
2023-01-31T09:23:47.136Z,7.17
2023-01-31T09:26:15.250Z,7.63
2023-01-31T09:28:43.496Z,8.53
2023-01-31T09:31:12.209Z,8.17
2023-01-31T09:33:41.605Z,7.93
2023-01-31T09:36:10.976Z,9.63
2023-01-31T09:38:39.149Z,7.90
2023-01-31T09:41:08.200Z,10.47
2023-01-31T09:43:38.802Z,8.60
2023-01-31T09:46:07.761Z,8.17
2023-01-31T09:48:36.973Z,7.40
2023-01-31T09:51:06.805Z,7.17
2023-01-31T09:53:36.451Z,8.00
2023-01-31T09:56:14.403Z,6.03
2023-01-31T09:58:46.113Z,6.40
2023-01-31T10:01:17.415Z,6.53
2023-01-31T10:03:52.975Z,5.90
2023-01-31T10:06:24.489Z,8.53
2023-01-31T10:08:54.905Z,8.47
2023-01-31T10:11:30.665Z,7.40
2023-01-31T10:14:01.304Z,7.87
2023-01-31T10:16:31.755Z,7.40
2023-01-31T10:19:00.850Z,8.10
2023-01-31T10:21:31.588Z,6.47
2023-01-31T10:24:01.490Z,8.27
2023-01-31T10:26:30.518Z,7.47
2023-01-31T10:29:01.425Z,7.60
2023-01-31T10:31:32.237Z,8.03
2023-01-31T10:34:01.836Z,7.80
2023-01-31T10:36:33.968Z,7.77
2023-01-31T10:39:04.102Z,8.53
2023-01-31T10:41:37.904Z,8.03
2023-01-31T10:44:08.249Z,6.27
2023-01-31T10:46:36.252Z,6.73
2023-01-31T10:49:04.192Z,6.80
2023-01-31T10:51:41.596Z,8.00
2023-01-31T10:54:19.064Z,9.27
2023-01-31T10:56:47.997Z,9.97
2023-01-31T10:59:19.964Z,9.30
2023-01-31T11:01:48.183Z,7.57
2023-01-31T11:04:24.885Z,8.70
2023-01-31T11:06:54.390Z,7.80
2023-01-31T11:09:23.037Z,7.03
2023-01-31T11:11:55.940Z,7.70
2023-01-31T11:14:23.933Z,6.10
2023-01-31T11:16:51.909Z,9.87
2023-01-31T11:19:23.127Z,8.07
2023-01-31T11:21:51.824Z,6.10
2023-01-31T11:24:21.869Z,7.27
2023-01-31T11:26:52.900Z,9.00
2023-01-31T11:29:23.347Z,9.93
2023-01-31T11:31:51.358Z,7.13
2023-01-31T11:34:20.840Z,8.67
2023-01-31T11:36:48.739Z,6.67
2023-01-31T11:39:26.991Z,8.60
2023-01-31T11:41:54.912Z,8.00
2023-01-31T11:44:23.469Z,8.00
2023-01-31T11:46:53.859Z,10.30
2023-01-31T11:49:24.962Z,8.00
2023-01-31T11:51:52.967Z,9.57
2023-01-31T11:54:22.687Z,7.43
2023-01-31T11:56:54.165Z,8.03
2023-01-31T11:59:25.340Z,8.93
2023-01-31T12:01:54.642Z,6.60
2023-01-31T12:04:25.261Z,8.43
2023-01-31T12:06:57.775Z,9.77
2023-01-31T12:09:26.472Z,7.73
2023-01-31T12:11:56.789Z,8.13
2023-01-31T12:14:25.443Z,9.27
2023-01-31T12:16:55.790Z,8.67
2023-01-31T12:19:30.836Z,7.83
2023-01-31T12:22:03.891Z,8.60
2023-01-31T12:24:38.245Z,7.63
2023-01-31T12:27:14.282Z,8.37
2023-01-31T12:29:58.436Z,7.30
2023-01-31T12:32:46.650Z,7.60
2023-01-31T12:35:39.259Z,8.17
2023-01-31T12:38:14.456Z,11.00
2023-01-31T12:40:44.972Z,11.30
2023-01-31T12:43:24.489Z,8.67
2023-01-31T12:45:59.050Z,11.27
2023-01-31T12:48:51.015Z,9.40
2023-01-31T12:51:26.353Z,9.10
2023-01-31T12:54:00.628Z,9.20
2023-01-31T12:56:39.079Z,10.43
2023-01-31T12:59:16.270Z,7.67
2023-01-31T13:01:47.852Z,7.73
2023-01-31T13:04:38.563Z,10.10
2023-01-31T13:07:07.751Z,8.53
2023-01-31T13:09:36.385Z,8.30
2023-01-31T13:12:07.073Z,8.53
2023-01-31T13:14:38.840Z,8.03
2023-01-31T13:17:08.471Z,8.00
2023-01-31T13:19:38.209Z,7.10
2023-01-31T13:22:09.416Z,9.57
2023-01-31T13:24:39.188Z,8.13
2023-01-31T13:27:11.278Z,9.23
2023-01-31T13:29:43.388Z,10.77
2023-01-31T13:32:13.207Z,9.07
2023-01-31T13:34:42.526Z,10.50
2023-01-31T13:37:12.454Z,10.97
2023-01-31T13:39:41.099Z,10.43
2023-01-31T13:42:10.744Z,11.87
2023-01-31T13:44:38.731Z,11.77
2023-01-31T13:47:13.725Z,10.17
2023-01-31T13:49:43.825Z,10.03
2023-01-31T13:52:13.784Z,11.27
2023-01-31T13:54:42.496Z,12.00
2023-01-31T13:57:21.956Z,12.10
2023-01-31T13:59:53.575Z,12.90
2023-01-31T14:02:22.932Z,12.90
2023-01-31T14:04:50.901Z,11.80
2023-01-31T14:07:20.737Z,10.30
2023-01-31T14:10:22.134Z,12.07
2023-01-31T14:12:51.050Z,10.03
2023-01-31T14:15:46.626Z,11.80
2023-01-31T14:18:16.031Z,13.37
2023-01-31T14:20:43.989Z,15.37
2023-01-31T14:23:32.057Z,15.07
2023-01-31T14:25:59.998Z,18.07
2023-01-31T14:28:27.913Z,20.83
2023-01-31T14:30:56.596Z,24.87
2023-01-31T14:33:29.244Z,22.57
2023-01-31T14:36:19.975Z,28.20
2023-01-31T14:38:57.094Z,28.67
2023-01-31T14:41:29.970Z,29.20
2023-01-31T14:44:03.408Z,26.63
2023-01-31T14:46:39.217Z,27.43
2023-01-31T14:49:32.518Z,27.67
2023-01-31T14:52:18.391Z,26.03
2023-01-31T14:54:59.843Z,32.30
2023-01-31T14:57:28.396Z,35.40
2023-01-31T14:59:57.814Z,35.90
2023-01-31T15:02:43.020Z,33.23
2023-01-31T15:05:14.287Z,34.57
2023-01-31T15:08:01.920Z,26.80
2023-01-31T15:10:54.859Z,30.70
2023-01-31T15:13:47.227Z,28.40
2023-01-31T15:16:23.503Z,23.83
2023-01-31T15:18:54.198Z,22.43
2023-01-31T15:21:25.829Z,46.03
2023-01-31T15:23:54.419Z,33.97
2023-01-31T15:26:22.392Z,23.53
2023-01-31T15:28:50.369Z,26.40
2023-01-31T15:31:22.035Z,64.03
2023-01-31T15:33:51.841Z,51.90
2023-01-31T15:36:26.508Z,85.30
2023-01-31T15:38:56.853Z,124.03
2023-01-31T15:41:25.781Z,51.90
2023-01-31T15:43:54.442Z,71.63
2023-01-31T15:46:24.050Z,27.77
2023-01-31T15:48:52.039Z,25.90
2023-01-31T15:51:20.037Z,28.80
2023-01-31T15:53:49.337Z,30.60
2023-01-31T15:56:19.967Z,32.43
2023-01-31T15:58:48.749Z,28.77
2023-01-31T16:01:17.392Z,42.40
2023-01-31T16:03:51.164Z,31.07
2023-01-31T16:06:23.508Z,47.90
2023-01-31T16:09:00.758Z,19.73
2023-01-31T16:11:33.319Z,15.03
2023-01-31T16:14:02.889Z,21.70
2023-01-31T16:16:31.085Z,12.13
2023-01-31T16:19:00.103Z,43.67
2023-01-31T16:21:29.115Z,28.47
2023-01-31T16:24:09.639Z,20.20
2023-01-31T16:26:38.746Z,60.63
2023-01-31T16:29:08.966Z,40.73
2023-01-31T16:31:44.787Z,19.57
2023-01-31T16:34:22.011Z,28.33
2023-01-31T16:36:57.977Z,16.83
2023-01-31T16:39:34.419Z,19.83
2023-01-31T16:42:02.367Z,56.23
2023-01-31T16:44:35.018Z,26.73
2023-01-31T16:47:04.167Z,27.77
2023-01-31T16:49:32.989Z,26.87
2023-01-31T16:52:18.302Z,32.40
2023-01-31T16:54:51.155Z,27.50
2023-01-31T16:57:23.608Z,35.60
2023-01-31T16:59:52.632Z,35.60
2023-01-31T17:02:23.442Z,34.00
2023-01-31T17:04:52.165Z,22.43
2023-01-31T17:07:21.103Z,25.63
2023-01-31T17:09:50.564Z,30.47
2023-01-31T17:12:20.117Z,26.20
2023-01-31T17:14:48.633Z,27.53
2023-01-31T17:17:21.936Z,27.97
2023-01-31T17:19:50.335Z,25.50
2023-01-31T17:22:18.289Z,27.37
2023-01-31T17:24:46.847Z,28.00
2023-01-31T17:27:16.752Z,31.70
2023-01-31T17:29:47.296Z,37.47
2023-01-31T17:32:15.704Z,77.13
2023-01-31T17:34:45.098Z,53.37
2023-01-31T17:37:16.074Z,46.30
2023-01-31T17:39:44.367Z,42.17
2023-01-31T17:42:19.182Z,43.57
2023-01-31T17:44:47.108Z,34.20
2023-01-31T17:47:15.230Z,31.80
2023-01-31T17:49:45.152Z,25.93
2023-01-31T17:52:13.258Z,44.57
2023-01-31T17:54:41.287Z,42.30
2023-01-31T17:57:09.325Z,32.70
2023-01-31T17:59:38.667Z,36.10
2023-01-31T18:02:06.653Z,23.63
2023-01-31T18:04:34.608Z,34.33
2023-01-31T18:07:02.519Z,24.97
2023-01-31T18:09:30.514Z,24.27
2023-01-31T18:11:58.510Z,23.33
2023-01-31T18:14:26.536Z,27.20
2023-01-31T18:16:55.843Z,22.63
2023-01-31T18:19:24.008Z,30.60
2023-01-31T18:21:55.368Z,41.67
2023-01-31T18:24:23.747Z,18.20
2023-01-31T18:26:51.800Z,16.50
2023-01-31T18:29:21.201Z,22.60
2023-01-31T18:31:49.329Z,17.87
2023-01-31T18:34:18.682Z,23.70
2023-01-31T18:36:46.715Z,12.43
2023-01-31T18:39:14.723Z,36.67
2023-01-31T18:41:42.821Z,21.27
2023-01-31T18:44:10.811Z,24.67
2023-01-31T18:46:39.002Z,16.50
2023-01-31T18:49:07.061Z,9.80
2023-01-31T18:51:36.576Z,10.07
2023-01-31T18:54:05.842Z,10.30
2023-01-31T18:56:33.848Z,7.80
2023-01-31T18:59:01.798Z,7.90
2023-01-31T19:01:29.806Z,7.00
2023-01-31T19:03:58.435Z,8.83
2023-01-31T19:06:27.731Z,11.93
2023-01-31T19:08:58.300Z,10.03
2023-01-31T19:11:27.080Z,11.53
2023-01-31T19:13:55.079Z,8.70
2023-01-31T19:16:24.416Z,9.00
2023-01-31T19:18:52.433Z,7.47
2023-01-31T19:21:20.978Z,7.37
2023-01-31T19:23:49.110Z,6.20
2023-01-31T19:26:18.765Z,6.53
2023-01-31T19:28:47.647Z,8.03
2023-01-31T19:31:16.452Z,17.53
2023-01-31T19:33:44.523Z,15.53
2023-01-31T19:36:13.231Z,11.10
2023-01-31T19:38:41.212Z,11.73
2023-01-31T19:41:09.676Z,10.27
2023-01-31T19:43:39.035Z,11.20
2023-01-31T19:46:07.047Z,12.63
2023-01-31T19:48:35.143Z,9.77
2023-01-31T19:51:07.710Z,8.53
2023-01-31T19:53:35.650Z,6.83
2023-01-31T19:56:03.718Z,16.37
2023-01-31T19:58:32.234Z,4.87
2023-01-31T20:01:02.379Z,4.57
2023-01-31T20:03:30.440Z,6.93
2023-01-31T20:06:02.237Z,6.03
2023-01-31T20:08:30.346Z,5.97
2023-01-31T20:10:58.342Z,4.27
2023-01-31T20:13:26.423Z,4.20
2023-01-31T20:16:02.323Z,9.00
2023-01-31T20:18:31.117Z,3.50
2023-01-31T20:20:59.079Z,3.87
2023-01-31T20:23:28.664Z,6.83
2023-01-31T20:25:56.794Z,6.93
2023-01-31T20:28:24.810Z,3.30
2023-01-31T20:30:52.897Z,3.23
2023-01-31T20:33:22.588Z,4.27
2023-01-31T20:35:50.585Z,5.40
2023-01-31T20:38:18.979Z,4.20
2023-01-31T20:40:51.271Z,3.80
2023-01-31T20:43:19.280Z,9.43
2023-01-31T20:45:47.289Z,3.23
2023-01-31T20:48:15.504Z,4.13
2023-01-31T20:50:44.912Z,16.20
2023-01-31T20:53:18.084Z,5.80
2023-01-31T20:55:47.086Z,6.60
2023-01-31T20:58:15.070Z,4.70
2023-01-31T21:00:43.077Z,3.80
2023-01-31T21:03:11.035Z,7.00
2023-01-31T21:05:39.112Z,3.27
2023-01-31T21:08:08.596Z,6.53
2023-01-31T21:10:36.510Z,26.47
2023-01-31T21:13:04.477Z,14.70
2023-01-31T21:15:32.467Z,7.50
2023-01-31T21:18:00.484Z,3.50
2023-01-31T21:20:28.438Z,2.93
2023-01-31T21:22:56.378Z,2.50
2023-01-31T21:25:25.739Z,3.20
2023-01-31T21:27:53.730Z,2.40
2023-01-31T21:30:21.944Z,3.37
2023-01-31T21:32:50.030Z,2.70
2023-01-31T21:35:17.994Z,2.03
2023-01-31T21:37:45.915Z,2.90
2023-01-31T21:40:15.386Z,2.53
2023-01-31T21:42:43.754Z,2.17
2023-01-31T21:45:12.454Z,2.80
2023-01-31T21:48:00.792Z,2.37
2023-01-31T21:50:28.785Z,2.13
2023-01-31T21:52:56.762Z,3.37
2023-01-31T21:55:24.735Z,3.10
2023-01-31T21:57:54.060Z,2.23
2023-01-31T22:00:23.190Z,3.33
2023-01-31T22:02:53.110Z,2.57
2023-01-31T22:05:21.089Z,3.10
2023-01-31T22:07:49.045Z,1.90
2023-01-31T22:10:17.628Z,2.77
2023-01-31T22:12:45.621Z,2.07
2023-01-31T22:15:14.952Z,2.47
2023-01-31T22:17:42.939Z,2.30
2023-01-31T22:20:12.436Z,1.87
2023-01-31T22:22:40.435Z,2.40
2023-01-31T22:25:09.249Z,2.50
2023-01-31T22:27:37.178Z,2.77
2023-01-31T22:30:15.675Z,2.30
2023-01-31T22:32:45.666Z,1.80
2023-01-31T22:35:13.662Z,2.17
2023-01-31T22:37:42.401Z,2.03
2023-01-31T22:40:12.909Z,1.73
2023-01-31T22:42:40.894Z,1.90
2023-01-31T22:45:09.606Z,2.60
2023-01-31T22:47:37.579Z,1.90
2023-01-31T22:50:07.829Z,2.33
2023-01-31T22:52:35.772Z,2.10
2023-01-31T22:55:03.744Z,2.70
2023-01-31T22:57:31.711Z,2.13
2023-01-31T22:59:59.686Z,2.47
2023-01-31T23:02:27.601Z,1.73
2023-01-31T23:04:55.532Z,2.10
2023-01-31T23:07:24.827Z,1.80
2023-01-31T23:09:54.590Z,2.20
2023-01-31T23:12:22.568Z,3.70
2023-01-31T23:14:50.525Z,2.37
2023-01-31T23:17:35.895Z,2.37
2023-01-31T23:20:05.965Z,1.53
2023-01-31T23:22:35.345Z,2.17
2023-01-31T23:25:03.319Z,1.70
2023-01-31T23:27:31.238Z,2.10
2023-01-31T23:29:59.224Z,1.90
2023-01-31T23:32:27.159Z,2.87
2023-01-31T23:34:55.372Z,2.27
2023-01-31T23:37:23.520Z,2.67
2023-01-31T23:39:52.853Z,2.50
2023-01-31T23:42:20.787Z,1.70
2023-01-31T23:44:48.712Z,2.30
2023-01-31T23:47:16.697Z,2.00
2023-01-31T23:49:44.693Z,2.73
2023-01-31T23:52:12.667Z,2.47
2023-01-31T23:54:40.632Z,1.67
2023-01-31T23:57:09.973Z,2.00
2023-01-31T23:59:37.990Z,2.33
